createdAt,value
2022-08-16T00:00:04.131Z,39.89
2022-08-16T00:00:42.743Z,39.97
2022-08-16T00:01:15.658Z,40.06
2022-08-16T00:01:48.351Z,39.63
2022-08-16T00:02:24.645Z,39.97
2022-08-16T00:02:57.565Z,39.63
2022-08-16T00:03:29.902Z,40.16
2022-08-16T00:04:12.691Z,39.64
2022-08-16T00:04:45.071Z,39.85
2022-08-16T00:05:25.275Z,39.57
2022-08-16T00:06:02.550Z,39.61
2022-08-16T00:06:36.572Z,39.77
2022-08-16T00:07:11.899Z,39.67
2022-08-16T00:07:47.334Z,39.89
2022-08-16T00:08:37.182Z,40.09
2022-08-16T00:09:13.189Z,39.92
2022-08-16T00:09:46.550Z,39.62
2022-08-16T00:10:20.992Z,39.86
2022-08-16T00:10:56.399Z,39.79
2022-08-16T00:11:29.542Z,40.08
2022-08-16T00:12:05.293Z,39.79
2022-08-16T00:12:41.713Z,40.18
2022-08-16T00:13:16.720Z,40.08
2022-08-16T00:13:53.947Z,39.64
2022-08-16T00:14:30.356Z,39.79
2022-08-16T00:15:11.752Z,39.82
2022-08-16T00:15:51.676Z,39.79
2022-08-16T00:17:01.326Z,40.14
2022-08-16T00:17:22.321Z,39.99
2022-08-16T00:17:56.931Z,39.70
2022-08-16T00:18:32.460Z,39.89
2022-08-16T00:19:04.975Z,40.23
2022-08-16T00:19:41.681Z,40.05
2022-08-16T00:20:15.005Z,39.94
2022-08-16T00:20:48.366Z,39.67
2022-08-16T00:21:25.734Z,40.14
2022-08-16T00:22:03.165Z,39.90
2022-08-16T00:22:44.057Z,39.68
2022-08-16T00:23:17.094Z,39.82
2022-08-16T00:23:49.427Z,39.67
2022-08-16T00:24:32.750Z,40.19
2022-08-16T00:25:10.457Z,39.84
2022-08-16T00:26:33.390Z,40.11
2022-08-16T00:26:43.729Z,39.99
2022-08-16T00:27:19.309Z,39.91
2022-08-16T00:27:55.345Z,39.92
2022-08-16T00:28:28.579Z,40.08
2022-08-16T00:29:02.309Z,39.58
2022-08-16T00:29:37.269Z,39.54
2022-08-16T00:30:19.369Z,39.81
2022-08-16T00:30:52.411Z,39.72
2022-08-16T00:31:47.124Z,40.19
2022-08-16T00:32:21.163Z,39.87
2022-08-16T00:33:00.105Z,40.03
2022-08-16T00:33:32.513Z,40.21
2022-08-16T00:34:04.839Z,39.92
2022-08-16T00:34:52.215Z,39.70
2022-08-16T00:35:30.893Z,40.06
2022-08-16T00:36:12.330Z,40.29
2022-08-16T00:36:47.128Z,39.95
2022-08-16T00:37:20.722Z,39.79
2022-08-16T00:37:59.330Z,39.96
2022-08-16T00:38:41.068Z,40.11
2022-08-16T00:39:19.534Z,39.70
2022-08-16T00:39:58.256Z,39.43
2022-08-16T00:40:36.583Z,39.40
2022-08-16T00:41:12.270Z,39.12
2022-08-16T00:41:46.694Z,39.02
2022-08-16T00:42:30.079Z,39.38
2022-08-16T00:43:11.644Z,39.51
2022-08-16T00:43:45.047Z,39.48
2022-08-16T00:44:22.162Z,39.91
2022-08-16T00:45:09.674Z,39.71
2022-08-16T00:45:57.920Z,39.89
2022-08-16T00:46:37.490Z,39.80
2022-08-16T00:47:26.394Z,40.06
2022-08-16T00:48:03.796Z,39.73
2022-08-16T00:48:59.326Z,40.08
2022-08-16T00:49:33.318Z,39.98
2022-08-16T00:50:12.522Z,39.98
2022-08-16T00:50:48.259Z,39.84
2022-08-16T00:51:29.529Z,39.96
2022-08-16T00:52:02.160Z,39.96
2022-08-16T00:52:37.949Z,39.93
2022-08-16T00:53:19.309Z,40.13
2022-08-16T00:53:53.279Z,39.72
2022-08-16T00:54:30.419Z,39.70
2022-08-16T00:55:08.487Z,39.93
2022-08-16T00:55:46.933Z,39.65
2022-08-16T00:56:57.096Z,39.72
2022-08-16T00:57:17.747Z,39.92
2022-08-16T00:57:59.854Z,40.03
2022-08-16T00:58:38.386Z,40.06
2022-08-16T00:59:15.235Z,39.76
2022-08-16T00:59:57.438Z,39.78
2022-08-16T01:00:33.470Z,40.11
2022-08-16T01:01:08.422Z,39.90
2022-08-16T01:01:44.761Z,39.82
2022-08-16T01:02:46.870Z,39.84
2022-08-16T01:03:15.650Z,39.87
2022-08-16T01:03:51.838Z,39.74
2022-08-16T01:04:30.924Z,39.78
2022-08-16T01:05:09.045Z,39.60
2022-08-16T01:05:44.569Z,39.81
2022-08-16T01:06:40.248Z,39.99
2022-08-16T01:07:17.646Z,39.69
2022-08-16T01:07:51.965Z,39.81
2022-08-16T01:08:35.088Z,39.68
2022-08-16T01:09:09.494Z,39.70
2022-08-16T01:09:42.984Z,39.41
2022-08-16T01:10:18.023Z,39.67
2022-08-16T01:10:50.870Z,39.94
2022-08-16T01:11:24.110Z,39.48
2022-08-16T01:11:59.552Z,39.70
2022-08-16T01:12:32.006Z,39.62
2022-08-16T01:13:12.163Z,39.46
2022-08-16T01:13:47.718Z,39.41
2022-08-16T01:14:29.894Z,39.55
2022-08-16T01:15:04.025Z,39.60
2022-08-16T01:15:42.972Z,39.57
2022-08-16T01:16:20.249Z,39.47
2022-08-16T01:16:53.877Z,39.41
2022-08-16T01:17:29.942Z,39.55
2022-08-16T01:18:39.096Z,39.49
2022-08-16T01:19:16.883Z,39.57
2022-08-16T01:19:53.145Z,39.48
2022-08-16T01:20:34.228Z,39.75
2022-08-16T01:21:33.931Z,39.41
2022-08-16T01:22:49.943Z,39.52
2022-08-16T01:23:17.167Z,39.72
2022-08-16T01:24:05.842Z,39.57
2022-08-16T01:25:04.518Z,39.46
2022-08-16T01:25:39.526Z,39.54
2022-08-16T01:26:34.334Z,39.75
2022-08-16T01:27:11.226Z,39.34
2022-08-16T01:27:50.779Z,39.70
2022-08-16T01:28:30.897Z,39.72
2022-08-16T01:29:05.437Z,39.55
2022-08-16T01:29:58.227Z,39.48
2022-08-16T01:30:39.737Z,39.36
2022-08-16T01:31:22.935Z,39.66
2022-08-16T01:32:04.146Z,39.60
2022-08-16T01:32:45.182Z,39.43
2022-08-16T01:33:36.035Z,39.29
2022-08-16T01:34:09.234Z,39.37
2022-08-16T01:35:00.616Z,39.42
2022-08-16T01:35:36.166Z,39.26
2022-08-16T01:36:11.991Z,39.62
2022-08-16T01:36:55.051Z,39.47
2022-08-16T01:37:39.391Z,39.47
2022-08-16T01:38:25.702Z,39.15
2022-08-16T01:39:11.725Z,39.48
2022-08-16T01:39:48.649Z,39.40
2022-08-16T01:40:26.115Z,39.63
2022-08-16T01:41:01.886Z,39.44
2022-08-16T01:41:41.972Z,39.38
2022-08-16T01:42:14.906Z,39.36
2022-08-16T01:42:53.913Z,39.47
2022-08-16T01:43:31.581Z,39.56
2022-08-16T01:44:05.029Z,39.36
2022-08-16T01:44:39.565Z,39.04
2022-08-16T01:45:14.802Z,39.37
2022-08-16T01:45:57.825Z,39.38
2022-08-16T01:46:39.632Z,39.14
2022-08-16T01:47:24.983Z,39.44
2022-08-16T01:48:01.802Z,39.53
2022-08-16T01:48:54.928Z,39.34
2022-08-16T01:49:45.530Z,39.12
2022-08-16T01:50:43.274Z,39.04
2022-08-16T01:51:20.404Z,39.21
2022-08-16T01:52:00.979Z,39.34
2022-08-16T01:52:59.755Z,39.19
2022-08-16T01:53:55.255Z,39.32
2022-08-16T01:54:37.594Z,39.48
2022-08-16T01:55:11.008Z,39.12
2022-08-16T01:55:54.111Z,39.38
2022-08-16T01:56:27.360Z,39.40
2022-08-16T01:57:04.750Z,39.65
2022-08-16T01:57:37.414Z,39.52
2022-08-16T01:58:12.168Z,39.18
2022-08-16T01:58:48.062Z,39.29
2022-08-16T01:59:25.379Z,39.69
2022-08-16T01:59:57.735Z,39.58
2022-08-16T02:00:31.198Z,39.12
2022-08-16T02:01:05.088Z,39.12
2022-08-16T02:01:44.163Z,39.36
2022-08-16T02:02:27.277Z,38.97
2022-08-16T02:03:02.410Z,39.30
2022-08-16T02:03:40.005Z,39.36
2022-08-16T02:04:12.647Z,39.09
2022-08-16T02:05:09.921Z,39.28
2022-08-16T02:05:51.976Z,39.53
2022-08-16T02:06:34.546Z,39.59
2022-08-16T02:07:11.366Z,39.45
2022-08-16T02:07:44.215Z,39.03
2022-08-16T02:08:33.452Z,39.16
2022-08-16T02:09:11.993Z,39.12
2022-08-16T02:09:58.864Z,39.30
2022-08-16T02:10:45.954Z,38.93
2022-08-16T02:11:18.746Z,39.29
2022-08-16T02:11:58.942Z,39.21
2022-08-16T02:12:40.156Z,39.06
2022-08-16T02:13:27.621Z,39.56
2022-08-16T02:14:03.753Z,39.31
2022-08-16T02:14:37.189Z,39.22
2022-08-16T02:15:10.181Z,39.15
2022-08-16T02:15:45.578Z,39.21
2022-08-16T02:16:19.070Z,39.05
2022-08-16T02:16:53.970Z,38.85
2022-08-16T02:17:26.418Z,39.12
2022-08-16T02:18:04.209Z,39.23
2022-08-16T02:18:40.417Z,38.90
2022-08-16T02:19:16.290Z,39.12
2022-08-16T02:19:59.702Z,39.14
2022-08-16T02:20:36.104Z,39.09
2022-08-16T02:21:12.617Z,39.22
2022-08-16T02:22:08.224Z,39.16
2022-08-16T02:22:42.095Z,39.46
2022-08-16T02:23:17.211Z,39.09
2022-08-16T02:23:55.775Z,39.15
2022-08-16T02:24:31.357Z,39.08
2022-08-16T02:25:11.551Z,39.09
2022-08-16T02:25:52.633Z,39.00
2022-08-16T02:26:26.746Z,39.25
2022-08-16T02:26:59.504Z,39.27
2022-08-16T02:27:34.439Z,39.26
2022-08-16T02:28:06.966Z,39.20
2022-08-16T02:28:47.120Z,39.16
2022-08-16T02:29:23.451Z,39.10
2022-08-16T02:30:07.465Z,38.84
2022-08-16T02:30:44.108Z,38.95
2022-08-16T02:31:20.965Z,38.80
2022-08-16T02:33:01.119Z,38.82
2022-08-16T02:33:10.523Z,39.09
2022-08-16T02:33:50.645Z,39.21
2022-08-16T02:34:40.400Z,39.36
2022-08-16T02:35:17.362Z,39.08
2022-08-16T02:35:58.285Z,39.34
2022-08-16T02:36:47.688Z,39.19
2022-08-16T02:37:24.050Z,39.18
2022-08-16T02:38:19.241Z,39.10
2022-08-16T02:38:52.234Z,39.21
2022-08-16T02:39:25.954Z,39.14
2022-08-16T02:40:05.912Z,39.13
2022-08-16T02:40:42.511Z,39.14
2022-08-16T02:41:15.508Z,39.19
2022-08-16T02:41:54.008Z,38.94
2022-08-16T02:42:28.505Z,39.12
2022-08-16T02:43:00.976Z,38.82
2022-08-16T02:43:39.031Z,39.14
2022-08-16T02:44:14.026Z,39.12
2022-08-16T02:44:52.470Z,39.45
2022-08-16T02:45:28.009Z,39.21
2022-08-16T02:46:01.390Z,39.29
2022-08-16T02:46:37.530Z,39.18
2022-08-16T02:47:10.591Z,38.99
2022-08-16T02:48:28.606Z,39.19
2022-08-16T02:48:52.851Z,39.03
2022-08-16T02:49:58.428Z,38.85
2022-08-16T02:50:54.412Z,39.14
2022-08-16T02:51:16.772Z,39.05
2022-08-16T02:51:50.346Z,39.14
2022-08-16T02:52:24.678Z,39.14
2022-08-16T02:53:09.425Z,39.30
2022-08-16T02:53:45.218Z,39.08
2022-08-16T02:54:18.382Z,39.15
2022-08-16T02:54:55.878Z,38.86
2022-08-16T02:55:40.750Z,39.10
2022-08-16T02:56:21.038Z,39.02
2022-08-16T02:56:53.390Z,39.06
2022-08-16T02:57:26.628Z,39.33
2022-08-16T02:57:59.445Z,38.75
2022-08-16T02:58:35.185Z,39.04
2022-08-16T02:59:11.777Z,39.13
2022-08-16T02:59:47.819Z,38.75
2022-08-16T03:00:33.799Z,39.10
2022-08-16T03:01:25.407Z,39.16
2022-08-16T03:02:08.227Z,38.87
2022-08-16T03:02:42.368Z,39.18
2022-08-16T03:03:18.598Z,38.98
2022-08-16T03:04:49.502Z,39.29
2022-08-16T03:04:52.093Z,39.10
2022-08-16T03:05:31.077Z,39.09
2022-08-16T03:06:38.930Z,39.10
2022-08-16T03:07:06.708Z,38.91
2022-08-16T03:07:50.530Z,39.05
2022-08-16T03:08:49.774Z,39.19
2022-08-16T03:09:23.715Z,38.87
2022-08-16T03:10:00.931Z,39.36
2022-08-16T03:10:41.576Z,38.99
2022-08-16T03:11:23.255Z,39.37
2022-08-16T03:11:56.269Z,39.38
2022-08-16T03:12:37.867Z,39.33
2022-08-16T03:13:26.665Z,38.83
2022-08-16T03:14:04.682Z,39.06
2022-08-16T03:14:40.011Z,39.11
2022-08-16T03:15:22.401Z,39.34
2022-08-16T03:16:00.113Z,38.90
2022-08-16T03:16:42.019Z,39.04
2022-08-16T03:17:32.388Z,38.97
2022-08-16T03:18:12.556Z,39.09
2022-08-16T03:19:06.360Z,39.09
2022-08-16T03:19:46.967Z,39.12
2022-08-16T03:20:32.285Z,38.93
2022-08-16T03:21:10.120Z,39.28
2022-08-16T03:21:43.180Z,38.95
2022-08-16T03:22:28.767Z,39.21
2022-08-16T03:23:04.721Z,38.87
2022-08-16T03:23:37.749Z,38.96
2022-08-16T03:24:28.727Z,38.95
2022-08-16T03:25:07.311Z,38.95
2022-08-16T03:25:44.674Z,38.80
2022-08-16T03:26:18.694Z,39.01
2022-08-16T03:26:57.878Z,38.87
2022-08-16T03:27:34.651Z,38.65
2022-08-16T03:28:10.239Z,38.87
2022-08-16T03:28:46.814Z,38.95
2022-08-16T03:29:19.364Z,38.86
2022-08-16T03:29:54.896Z,38.95
2022-08-16T03:30:33.969Z,38.96
2022-08-16T03:31:09.981Z,38.91
2022-08-16T03:31:42.597Z,39.03
2022-08-16T03:32:18.858Z,39.04
2022-08-16T03:32:52.703Z,39.16
2022-08-16T03:33:29.919Z,39.07
2022-08-16T03:34:06.280Z,38.84
2022-08-16T03:34:38.627Z,38.63
2022-08-16T03:35:11.129Z,38.75
2022-08-16T03:35:46.169Z,38.65
2022-08-16T03:36:31.032Z,38.92
2022-08-16T03:37:09.150Z,38.63
2022-08-16T03:38:02.944Z,39.01
2022-08-16T03:38:47.518Z,39.07
2022-08-16T03:39:22.132Z,38.92
2022-08-16T03:39:56.752Z,38.76
2022-08-16T03:40:40.027Z,38.69
2022-08-16T03:41:14.082Z,38.79
2022-08-16T03:42:00.408Z,38.47
2022-08-16T03:43:18.619Z,38.73
2022-08-16T03:43:50.603Z,38.51
2022-08-16T03:44:44.571Z,38.85
2022-08-16T03:45:25.761Z,38.82
2022-08-16T03:46:06.560Z,38.77
2022-08-16T03:46:48.240Z,38.54
2022-08-16T03:47:30.590Z,38.76
2022-08-16T03:48:10.422Z,38.42
2022-08-16T03:48:49.405Z,38.96
2022-08-16T03:49:36.472Z,38.64
2022-08-16T03:50:25.888Z,38.66
2022-08-16T03:51:00.704Z,38.44
2022-08-16T03:51:39.629Z,38.64
2022-08-16T03:52:14.377Z,38.72
2022-08-16T03:52:49.324Z,38.65
2022-08-16T03:53:25.967Z,38.57
2022-08-16T03:54:12.673Z,38.97
2022-08-16T03:54:53.189Z,38.58
2022-08-16T03:55:28.945Z,38.48
2022-08-16T03:56:21.160Z,38.65
2022-08-16T03:56:57.205Z,38.56
2022-08-16T03:57:35.734Z,38.60
2022-08-16T03:58:16.789Z,38.57
2022-08-16T03:58:50.860Z,38.61
2022-08-16T03:59:25.106Z,38.68
2022-08-16T04:00:00.561Z,38.51
2022-08-16T04:00:46.070Z,38.69
2022-08-16T04:01:29.154Z,38.32
2022-08-16T04:02:07.202Z,38.42
2022-08-16T04:02:48.332Z,38.91
2022-08-16T04:03:24.274Z,38.98
2022-08-16T04:03:59.345Z,38.66
2022-08-16T04:04:34.352Z,38.51
2022-08-16T04:05:10.657Z,38.58
2022-08-16T04:05:51.245Z,38.73
2022-08-16T04:06:26.719Z,38.65
2022-08-16T04:06:59.817Z,38.66
2022-08-16T04:07:35.120Z,38.47
2022-08-16T04:08:22.941Z,38.88
2022-08-16T04:09:01.301Z,38.65
2022-08-16T04:09:37.914Z,38.97
2022-08-16T04:10:36.912Z,38.61
2022-08-16T04:11:08.821Z,38.45
2022-08-16T04:11:42.709Z,38.46
2022-08-16T04:12:53.244Z,38.71
2022-08-16T04:13:20.684Z,38.63
2022-08-16T04:14:31.112Z,38.56
2022-08-16T04:15:02.599Z,38.65
2022-08-16T04:15:38.417Z,38.67
2022-08-16T04:16:29.003Z,38.81
2022-08-16T04:17:09.924Z,38.79
2022-08-16T04:17:43.491Z,38.53
2022-08-16T04:18:19.517Z,38.53
2022-08-16T04:18:52.479Z,38.73
2022-08-16T04:19:31.870Z,38.57
2022-08-16T04:20:23.809Z,38.60
2022-08-16T04:21:04.712Z,38.75
2022-08-16T04:21:45.639Z,38.24
2022-08-16T04:22:21.245Z,38.61
2022-08-16T04:23:07.990Z,38.89
2022-08-16T04:23:43.551Z,38.39
2022-08-16T04:24:16.006Z,38.26
2022-08-16T04:24:54.306Z,38.68
2022-08-16T04:25:28.753Z,38.70
2022-08-16T04:26:04.310Z,38.62
2022-08-16T04:26:46.043Z,38.48
2022-08-16T04:27:19.505Z,38.33
2022-08-16T04:27:55.947Z,38.70
2022-08-16T04:28:53.380Z,38.85
2022-08-16T04:29:27.936Z,38.57
2022-08-16T04:30:32.391Z,38.61
2022-08-16T04:31:11.360Z,38.55
2022-08-16T04:31:56.129Z,38.73
2022-08-16T04:32:35.505Z,38.70
2022-08-16T04:33:09.746Z,38.85
2022-08-16T04:33:51.025Z,39.02
2022-08-16T04:34:30.628Z,38.74
2022-08-16T04:35:08.385Z,38.40
2022-08-16T04:35:49.413Z,38.46
2022-08-16T04:36:25.097Z,38.57
2022-08-16T04:37:01.307Z,38.61
2022-08-16T04:37:42.207Z,38.91
2022-08-16T04:38:24.206Z,38.55
2022-08-16T04:39:02.034Z,38.73
2022-08-16T04:39:46.563Z,38.77
2022-08-16T04:40:25.216Z,38.51
2022-08-16T04:41:01.467Z,38.82
2022-08-16T04:41:37.361Z,38.65
2022-08-16T04:42:12.786Z,38.67
2022-08-16T04:42:48.382Z,38.41
2022-08-16T04:43:23.675Z,38.34
2022-08-16T04:44:01.421Z,38.56
2022-08-16T04:44:53.736Z,38.63
2022-08-16T04:45:36.123Z,38.91
2022-08-16T04:46:19.816Z,38.79
2022-08-16T04:47:21.453Z,38.36
2022-08-16T04:47:57.558Z,38.65
2022-08-16T04:48:32.471Z,38.63
2022-08-16T04:49:11.149Z,38.56
2022-08-16T04:49:46.076Z,38.87
2022-08-16T04:50:30.437Z,38.72
2022-08-16T04:51:23.306Z,38.90
2022-08-16T04:51:58.251Z,38.57
2022-08-16T04:52:35.861Z,38.50
2022-08-16T04:53:09.502Z,38.86
2022-08-16T04:53:50.419Z,38.80
2022-08-16T04:54:24.806Z,38.63
2022-08-16T04:54:58.843Z,38.85
2022-08-16T04:55:38.013Z,38.87
2022-08-16T04:56:11.923Z,38.78
2022-08-16T04:56:46.226Z,38.76
2022-08-16T04:57:21.570Z,38.70
2022-08-16T04:57:55.031Z,38.88
2022-08-16T04:58:44.646Z,39.07
2022-08-16T04:59:23.453Z,38.72
2022-08-16T04:59:57.829Z,38.98
2022-08-16T05:00:36.140Z,38.99
2022-08-16T05:01:15.486Z,39.09
2022-08-16T05:01:58.277Z,38.71
2022-08-16T05:02:55.948Z,39.01
2022-08-16T05:03:27.721Z,38.82
2022-08-16T05:04:01.730Z,38.73
2022-08-16T05:04:57.109Z,38.61
2022-08-16T05:05:32.746Z,38.92
2022-08-16T05:06:09.874Z,38.73
2022-08-16T05:06:45.027Z,38.19
2022-08-16T05:07:37.520Z,38.38
2022-08-16T05:08:34.130Z,38.22
2022-08-16T05:09:23.375Z,37.97
2022-08-16T05:10:02.161Z,38.13
2022-08-16T05:10:35.030Z,37.78
2022-08-16T05:11:09.059Z,38.14
2022-08-16T05:11:44.134Z,37.77
2022-08-16T05:12:18.213Z,37.95
2022-08-16T05:12:58.181Z,38.07
2022-08-16T05:13:39.947Z,37.73
2022-08-16T05:14:20.230Z,37.45
2022-08-16T05:15:12.301Z,37.61
2022-08-16T05:15:49.778Z,37.60
2022-08-16T05:16:27.698Z,37.60
2022-08-16T05:17:16.942Z,37.46
2022-08-16T05:17:59.660Z,37.39
2022-08-16T05:18:43.073Z,37.16
2022-08-16T05:19:16.519Z,37.17
2022-08-16T05:20:35.622Z,37.08
2022-08-16T05:21:09.591Z,37.40
2022-08-16T05:21:48.014Z,36.96
2022-08-16T05:22:24.446Z,37.05
2022-08-16T05:23:01.710Z,36.83
2022-08-16T05:23:38.654Z,36.97
2022-08-16T05:24:11.489Z,37.00
2022-08-16T05:24:47.855Z,37.00
2022-08-16T05:25:20.450Z,37.16
2022-08-16T05:25:59.868Z,37.08
2022-08-16T05:26:36.221Z,37.03
2022-08-16T05:27:11.556Z,36.85
2022-08-16T05:27:45.363Z,37.34
2022-08-16T05:28:37.469Z,37.19
2022-08-16T05:29:14.672Z,37.03
2022-08-16T05:30:02.946Z,37.01
2022-08-16T05:30:54.590Z,37.34
2022-08-16T05:31:33.250Z,37.46
2022-08-16T05:32:31.970Z,37.17
2022-08-16T05:33:03.425Z,37.10
2022-08-16T05:33:36.950Z,37.03
2022-08-16T05:34:21.476Z,37.10
2022-08-16T05:34:56.654Z,37.05
2022-08-16T05:35:29.107Z,36.81
2022-08-16T05:36:35.831Z,37.22
2022-08-16T05:37:10.319Z,37.45
2022-08-16T05:37:44.683Z,37.00
2022-08-16T05:38:32.447Z,37.15
2022-08-16T05:39:10.054Z,37.28
2022-08-16T05:39:46.687Z,37.22
2022-08-16T05:40:19.670Z,37.40
2022-08-16T05:40:59.800Z,37.32
2022-08-16T05:41:45.350Z,37.21
2022-08-16T05:42:19.721Z,37.42
2022-08-16T05:42:55.997Z,37.29
2022-08-16T05:43:32.039Z,37.22
2022-08-16T05:44:23.555Z,37.36
2022-08-16T05:44:58.606Z,37.21
2022-08-16T05:45:31.154Z,37.39
2022-08-16T05:46:29.952Z,37.44
2022-08-16T05:47:10.982Z,37.50
2022-08-16T05:48:00.398Z,37.46
2022-08-16T05:48:55.021Z,37.47
2022-08-16T05:49:38.238Z,37.60
2022-08-16T05:50:19.015Z,37.86
2022-08-16T05:50:52.989Z,37.85
2022-08-16T05:51:38.306Z,37.51
2022-08-16T05:52:13.413Z,37.86
2022-08-16T05:52:50.503Z,37.69
2022-08-16T05:53:24.334Z,37.76
2022-08-16T05:54:26.573Z,37.90
2022-08-16T05:55:02.683Z,37.72
2022-08-16T05:55:40.652Z,37.98
2022-08-16T05:56:19.357Z,38.12
2022-08-16T05:56:54.575Z,38.05
2022-08-16T05:57:34.613Z,37.84
2022-08-16T05:58:08.218Z,37.98
2022-08-16T05:58:41.995Z,37.71
2022-08-16T05:59:22.070Z,37.96
2022-08-16T06:00:00.238Z,37.95
2022-08-16T06:00:44.552Z,37.72
2022-08-16T06:01:26.649Z,37.96
2022-08-16T06:02:06.050Z,37.81
2022-08-16T06:02:43.475Z,38.17
2022-08-16T06:03:39.858Z,37.87
2022-08-16T06:04:36.506Z,38.40
2022-08-16T06:05:17.710Z,37.96
2022-08-16T06:05:53.617Z,38.05
2022-08-16T06:06:28.047Z,38.18
2022-08-16T06:07:07.044Z,38.54
2022-08-16T06:07:45.099Z,38.24
2022-08-16T06:08:42.379Z,38.34
2022-08-16T06:09:23.154Z,38.26
2022-08-16T06:09:59.867Z,38.31
2022-08-16T06:10:36.793Z,38.35
2022-08-16T06:11:11.290Z,38.05
2022-08-16T06:11:50.382Z,38.31
2022-08-16T06:12:26.970Z,38.66
2022-08-16T06:13:04.241Z,38.56
2022-08-16T06:13:42.023Z,38.34
2022-08-16T06:14:17.506Z,38.39
2022-08-16T06:14:51.296Z,38.23
2022-08-16T06:15:28.368Z,38.49
2022-08-16T06:16:03.781Z,38.45
2022-08-16T06:16:44.142Z,38.65
2022-08-16T06:17:16.590Z,38.57
2022-08-16T06:17:51.828Z,38.46
2022-08-16T06:18:30.314Z,38.75
2022-08-16T06:19:04.912Z,38.88
2022-08-16T06:19:42.768Z,38.51
2022-08-16T06:20:34.902Z,38.37
2022-08-16T06:21:22.681Z,38.44
2022-08-16T06:22:01.194Z,38.35
2022-08-16T06:22:39.465Z,38.26
2022-08-16T06:23:17.761Z,38.67
2022-08-16T06:24:52.880Z,38.80
2022-08-16T06:25:08.529Z,38.47
2022-08-16T06:25:44.781Z,38.78
2022-08-16T06:26:34.726Z,38.73
2022-08-16T06:27:13.820Z,38.62
2022-08-16T06:27:57.544Z,38.40
2022-08-16T06:28:37.358Z,38.54
2022-08-16T06:29:15.273Z,38.54
2022-08-16T06:29:49.926Z,38.99
2022-08-16T06:30:28.859Z,39.01
2022-08-16T06:31:01.997Z,38.73
2022-08-16T06:31:46.693Z,38.81
2022-08-16T06:32:26.956Z,38.73
2022-08-16T06:33:03.983Z,38.91
2022-08-16T06:33:41.779Z,38.80
2022-08-16T06:34:55.033Z,38.44
2022-08-16T06:35:13.710Z,38.85
2022-08-16T06:35:47.132Z,38.76
2022-08-16T06:36:24.165Z,39.14
2022-08-16T06:37:19.400Z,38.95
2022-08-16T06:37:54.787Z,39.02
2022-08-16T06:38:32.825Z,38.77
2022-08-16T06:39:11.421Z,38.73
2022-08-16T06:39:53.816Z,38.46
2022-08-16T06:40:40.519Z,38.48
2022-08-16T06:41:21.566Z,38.41
2022-08-16T06:41:57.221Z,38.80
2022-08-16T06:42:48.602Z,38.83
2022-08-16T06:43:41.925Z,38.81
2022-08-16T06:44:20.943Z,38.75
2022-08-16T06:44:55.059Z,38.62
2022-08-16T06:45:47.130Z,39.07
2022-08-16T06:46:31.559Z,38.75
2022-08-16T06:47:08.483Z,38.90
2022-08-16T06:47:53.245Z,38.87
2022-08-16T06:48:34.082Z,38.82
2022-08-16T06:49:10.913Z,38.70
2022-08-16T06:49:43.533Z,38.77
2022-08-16T06:50:29.981Z,38.68
2022-08-16T06:51:07.370Z,38.63
2022-08-16T06:51:45.901Z,38.61
2022-08-16T06:53:00.007Z,38.80
2022-08-16T06:53:19.778Z,38.90
2022-08-16T06:54:08.310Z,38.96
2022-08-16T06:54:46.595Z,38.87
2022-08-16T06:55:23.029Z,38.63
2022-08-16T06:56:14.205Z,38.56
2022-08-16T06:57:03.842Z,38.62
2022-08-16T06:57:40.333Z,38.54
2022-08-16T06:58:22.861Z,38.64
2022-08-16T06:59:15.462Z,38.37
2022-08-16T06:59:58.528Z,38.78
2022-08-16T07:00:43.025Z,38.89
2022-08-16T07:01:20.161Z,38.74
2022-08-16T07:01:59.793Z,39.07
2022-08-16T07:02:33.990Z,38.75
2022-08-16T07:03:26.441Z,38.99
2022-08-16T07:04:03.681Z,38.68
2022-08-16T07:04:44.625Z,38.67
2022-08-16T07:05:27.351Z,38.58
2022-08-16T07:06:21.844Z,38.63
2022-08-16T07:07:03.471Z,38.53
2022-08-16T07:07:36.691Z,39.04
2022-08-16T07:08:11.707Z,38.49
2022-08-16T07:08:48.909Z,38.58
2022-08-16T07:09:21.555Z,39.07
2022-08-16T07:09:57.569Z,38.42
2022-08-16T07:10:31.203Z,38.87
2022-08-16T07:11:03.652Z,38.85
2022-08-16T07:11:45.542Z,38.82
2022-08-16T07:12:19.583Z,38.78
2022-08-16T07:13:04.525Z,38.56
2022-08-16T07:14:00.360Z,38.53
2022-08-16T07:14:49.189Z,39.02
2022-08-16T07:15:26.539Z,38.82
2022-08-16T07:16:01.086Z,38.83
2022-08-16T07:16:34.694Z,38.68
2022-08-16T07:17:12.928Z,38.91
2022-08-16T07:17:53.589Z,39.19
2022-08-16T07:18:28.833Z,38.86
2022-08-16T07:19:04.001Z,38.90
2022-08-16T07:20:29.239Z,39.00
2022-08-16T07:20:47.701Z,38.85
2022-08-16T07:21:22.529Z,38.98
2022-08-16T07:21:59.569Z,39.18
2022-08-16T07:22:38.230Z,39.16
2022-08-16T07:23:18.949Z,38.98
2022-08-16T07:24:06.167Z,38.86
2022-08-16T07:24:45.677Z,38.72
2022-08-16T07:25:18.589Z,38.87
2022-08-16T07:25:54.567Z,38.89
2022-08-16T07:26:30.149Z,38.90
2022-08-16T07:27:08.497Z,38.91
2022-08-16T07:27:42.659Z,38.85
2022-08-16T07:28:24.376Z,39.02
2022-08-16T07:28:59.779Z,38.90
2022-08-16T07:29:32.223Z,39.09
2022-08-16T07:30:39.673Z,39.09
2022-08-16T07:31:06.131Z,38.87
2022-08-16T07:31:51.135Z,38.68
2022-08-16T07:32:29.178Z,39.09
2022-08-16T07:33:02.461Z,38.59
2022-08-16T07:33:52.446Z,38.81
2022-08-16T07:34:35.128Z,38.56
2022-08-16T07:35:11.621Z,39.06
2022-08-16T07:35:49.738Z,39.02
2022-08-16T07:36:26.775Z,39.25
2022-08-16T07:37:05.539Z,39.07
2022-08-16T07:37:57.719Z,39.02
2022-08-16T07:38:48.017Z,38.86
2022-08-16T07:39:25.345Z,39.26
2022-08-16T07:40:11.522Z,38.95
2022-08-16T07:40:59.470Z,38.68
2022-08-16T07:41:34.474Z,38.57
2022-08-16T07:42:20.121Z,39.19
2022-08-16T07:42:58.796Z,38.78
2022-08-16T07:43:34.045Z,38.93
2022-08-16T07:44:16.347Z,38.85
2022-08-16T07:44:50.971Z,38.73
2022-08-16T07:45:26.501Z,38.73
2022-08-16T07:46:06.365Z,38.69
2022-08-16T07:47:01.347Z,38.57
2022-08-16T07:47:34.808Z,38.69
2022-08-16T07:48:11.276Z,38.73
2022-08-16T07:48:52.689Z,38.56
2022-08-16T07:49:32.560Z,38.75
2022-08-16T07:50:08.286Z,38.85
2022-08-16T07:51:08.845Z,38.85
2022-08-16T07:51:42.439Z,38.73
2022-08-16T07:52:20.487Z,38.75
2022-08-16T07:52:54.487Z,39.06
2022-08-16T07:53:31.128Z,38.95
2022-08-16T07:54:09.701Z,38.68
2022-08-16T07:54:53.417Z,38.92
2022-08-16T07:55:27.427Z,38.75
2022-08-16T07:56:00.744Z,39.00
2022-08-16T07:56:41.817Z,38.65
2022-08-16T07:57:16.265Z,39.11
2022-08-16T07:58:01.142Z,38.84
2022-08-16T07:58:38.250Z,38.92
2022-08-16T07:59:18.491Z,38.82
2022-08-16T07:59:50.985Z,39.08
2022-08-16T08:00:26.598Z,38.93
2022-08-16T08:01:05.800Z,39.29
2022-08-16T08:01:42.722Z,38.91
2022-08-16T08:02:20.080Z,38.91
2022-08-16T08:03:00.570Z,39.08
2022-08-16T08:03:35.766Z,39.27
2022-08-16T08:04:16.642Z,39.19
2022-08-16T08:04:49.747Z,39.43
2022-08-16T08:05:29.713Z,39.15
2022-08-16T08:06:11.990Z,39.61
2022-08-16T08:06:44.829Z,39.38
2022-08-16T08:07:21.612Z,39.73
2022-08-16T08:07:59.347Z,39.52
2022-08-16T08:08:51.700Z,39.25
2022-08-16T08:09:27.814Z,39.72
2022-08-16T08:10:00.286Z,39.70
2022-08-16T08:10:36.627Z,39.47
2022-08-16T08:11:11.175Z,39.75
2022-08-16T08:12:00.686Z,39.95
2022-08-16T08:12:41.864Z,39.82
2022-08-16T08:13:17.933Z,39.98
2022-08-16T08:13:50.947Z,39.82
2022-08-16T08:14:29.821Z,39.68
2022-08-16T08:15:09.645Z,39.99
2022-08-16T08:15:52.652Z,40.08
2022-08-16T08:16:30.306Z,39.99
2022-08-16T08:17:08.605Z,40.28
2022-08-16T08:17:43.931Z,40.20
2022-08-16T08:18:31.261Z,40.09
2022-08-16T08:19:08.764Z,40.27
2022-08-16T08:19:53.191Z,40.08
2022-08-16T08:20:28.642Z,39.88
2022-08-16T08:21:07.975Z,39.86
2022-08-16T08:21:58.893Z,40.11
2022-08-16T08:23:00.868Z,39.88
2022-08-16T08:23:42.586Z,40.12
2022-08-16T08:24:16.165Z,40.21
2022-08-16T08:24:53.254Z,40.31
2022-08-16T08:25:27.190Z,40.20
2022-08-16T08:26:24.348Z,40.06
2022-08-16T08:26:59.406Z,40.16
2022-08-16T08:27:34.353Z,40.64
2022-08-16T08:28:10.972Z,40.28
2022-08-16T08:28:48.259Z,40.08
2022-08-16T08:29:24.766Z,40.50
2022-08-16T08:30:50.141Z,40.43
2022-08-16T08:31:08.191Z,40.13
2022-08-16T08:31:46.542Z,40.28
2022-08-16T08:32:57.255Z,40.18
2022-08-16T08:33:16.334Z,40.31
2022-08-16T08:33:51.468Z,40.46
2022-08-16T08:34:25.118Z,40.24
2022-08-16T08:35:04.199Z,40.54
2022-08-16T08:35:38.827Z,40.74